MAY 27, 2018

 

METAR SMJP 270300Z 09002KT CAVOK 24/23 Q1014 NOSIG=